createdAt,value
2023-01-27T00:00:59.938Z,15.75
2023-01-27T00:03:27.194Z,15.68
2023-01-27T00:05:54.634Z,15.65
2023-01-27T00:08:22.065Z,15.18
2023-01-27T00:11:09.258Z,15.50
2023-01-27T00:13:36.608Z,15.35
2023-01-27T00:16:04.061Z,16.08
2023-01-27T00:18:31.344Z,16.30
2023-01-27T00:21:17.005Z,15.93
2023-01-27T00:24:02.901Z,14.32
2023-01-27T00:26:30.455Z,15.05
2023-01-27T00:28:57.737Z,15.35
2023-01-27T00:31:43.515Z,15.23
2023-01-27T00:34:11.201Z,14.88
2023-01-27T00:36:41.146Z,14.50
2023-01-27T00:39:09.857Z,15.32
2023-01-27T00:41:37.105Z,16.33
2023-01-27T00:44:12.630Z,15.80
2023-01-27T00:46:40.536Z,16.85
2023-01-27T00:49:07.984Z,13.65
2023-01-27T00:51:36.712Z,15.23
2023-01-27T00:54:05.252Z,16.30
2023-01-27T00:56:32.935Z,16.13
2023-01-27T00:59:00.553Z,15.77
2023-01-27T01:01:28.175Z,15.32
2023-01-27T01:03:55.476Z,16.27
2023-01-27T01:06:22.984Z,14.07
2023-01-27T01:08:52.395Z,13.85
2023-01-27T01:13:48.024Z,14.55
2023-01-27T01:16:22.032Z,16.70
2023-01-27T01:18:49.379Z,17.83
2023-01-27T01:21:17.151Z,15.35
2023-01-27T01:23:45.577Z,15.20
2023-01-27T01:26:14.725Z,16.13
2023-01-27T01:28:43.108Z,16.65
2023-01-27T01:31:12.443Z,15.57
2023-01-27T01:33:39.767Z,15.07
2023-01-27T01:36:09.051Z,15.80
2023-01-27T01:41:04.633Z,15.55
2023-01-27T01:43:32.018Z,17.00
2023-01-27T01:46:00.596Z,16.02
2023-01-27T01:49:01.530Z,16.90
2023-01-27T01:51:32.718Z,17.40
2023-01-27T01:54:05.117Z,15.75
2023-01-27T01:56:45.971Z,16.92
2023-01-27T01:59:36.215Z,16.40
2023-01-27T02:02:07.067Z,15.10
2023-01-27T02:04:43.086Z,17.30
2023-01-27T02:07:59.440Z,16.98
2023-01-27T02:10:26.877Z,15.52
2023-01-27T02:12:54.147Z,18.08
2023-01-27T02:15:21.583Z,17.02
2023-01-27T02:17:49.331Z,17.40
2023-01-27T02:20:28.051Z,16.65
2023-01-27T02:23:04.270Z,16.90
2023-01-27T02:25:37.402Z,18.35
2023-01-27T02:28:06.749Z,18.75
2023-01-27T02:33:01.775Z,16.92
2023-01-27T02:35:36.824Z,17.67
2023-01-27T02:38:05.413Z,18.80
2023-01-27T02:40:33.642Z,18.42
2023-01-27T02:43:01.259Z,19.20
2023-01-27T02:45:29.121Z,18.27
2023-01-27T02:47:56.379Z,17.70
2023-01-27T02:50:23.819Z,20.10
2023-01-27T02:52:51.076Z,19.60
2023-01-27T02:55:18.568Z,19.13
2023-01-27T02:57:45.815Z,18.70
2023-01-27T03:00:13.939Z,17.67
2023-01-27T03:02:41.293Z,16.85
2023-01-27T03:05:08.715Z,16.45
2023-01-27T03:07:35.962Z,17.60
2023-01-27T03:10:03.410Z,16.35
2023-01-27T03:12:30.628Z,17.10
2023-01-27T03:15:16.735Z,18.27
2023-01-27T03:18:02.621Z,18.27
2023-01-27T03:20:31.260Z,17.65
2023-01-27T03:22:58.596Z,16.02
2023-01-27T03:25:25.906Z,16.45
2023-01-27T03:27:53.178Z,16.27
2023-01-27T03:30:20.427Z,16.75
2023-01-27T03:32:47.764Z,16.75
2023-01-27T03:35:16.315Z,16.02
2023-01-27T03:38:02.603Z,14.37
2023-01-27T03:40:48.437Z,14.50
2023-01-27T03:43:34.315Z,13.70
2023-01-27T03:46:18.444Z,12.75
2023-01-27T03:48:50.256Z,13.07
2023-01-27T03:51:18.760Z,12.77
2023-01-27T03:53:46.102Z,14.70
2023-01-27T03:56:13.409Z,14.60
2023-01-27T03:58:40.860Z,15.00
2023-01-27T04:01:16.215Z,14.05
2023-01-27T04:04:02.059Z,15.15
2023-01-27T04:06:49.841Z,14.98
2023-01-27T04:09:28.361Z,14.55
2023-01-27T04:11:59.685Z,16.67
2023-01-27T04:14:33.740Z,14.77
2023-01-27T04:17:03.926Z,13.65
2023-01-27T04:19:31.550Z,14.93
2023-01-27T04:21:59.448Z,15.82
2023-01-27T04:24:26.973Z,15.93
2023-01-27T04:27:08.921Z,15.38
2023-01-27T04:29:43.395Z,15.57
2023-01-27T04:32:11.881Z,15.80
2023-01-27T04:34:39.601Z,16.13
2023-01-27T04:37:08.040Z,14.60
2023-01-27T04:39:35.540Z,15.23
2023-01-27T04:42:04.429Z,14.40
2023-01-27T04:44:31.835Z,13.07
2023-01-27T04:46:59.128Z,13.55
2023-01-27T04:49:27.201Z,14.05
2023-01-27T04:51:54.969Z,15.55
2023-01-27T04:54:22.208Z,14.60
2023-01-27T04:57:00.483Z,14.20
2023-01-27T04:59:28.408Z,14.02
2023-01-27T05:01:55.918Z,14.13
2023-01-27T05:04:23.295Z,13.80
2023-01-27T05:06:50.841Z,13.98
2023-01-27T05:09:18.303Z,12.73
2023-01-27T05:11:45.706Z,12.77
2023-01-27T05:14:14.176Z,12.13
2023-01-27T05:16:43.717Z,12.90
2023-01-27T05:19:11.196Z,14.00
2023-01-27T05:21:38.462Z,12.93
2023-01-27T05:24:07.970Z,12.93
2023-01-27T05:26:35.476Z,12.98
2023-01-27T05:29:02.729Z,11.52
2023-01-27T05:31:33.895Z,13.07
2023-01-27T05:34:05.366Z,13.23
2023-01-27T05:36:32.638Z,12.73
2023-01-27T05:39:01.224Z,12.45
2023-01-27T05:41:33.361Z,11.73
2023-01-27T05:44:00.715Z,11.70
2023-01-27T05:46:30.326Z,11.52
2023-01-27T05:49:00.407Z,13.43
2023-01-27T05:51:30.947Z,12.35
2023-01-27T05:53:58.276Z,13.13
2023-01-27T05:56:28.419Z,13.02
2023-01-27T05:58:58.419Z,12.63
2023-01-27T06:01:27.902Z,12.23
2023-01-27T06:03:55.228Z,11.65
2023-01-27T06:06:24.660Z,13.27
2023-01-27T06:08:52.318Z,13.43
2023-01-27T06:11:20.639Z,12.50
2023-01-27T06:13:48.713Z,17.92
2023-01-27T06:16:18.259Z,14.80
2023-01-27T06:18:46.233Z,13.82
2023-01-27T06:21:18.046Z,12.63
2023-01-27T06:23:45.259Z,13.25
2023-01-27T06:26:17.637Z,11.55
2023-01-27T06:28:45.125Z,12.10
2023-01-27T06:31:15.216Z,13.35
2023-01-27T06:33:42.863Z,14.07
2023-01-27T06:36:12.672Z,12.02
2023-01-27T06:38:40.352Z,12.30
2023-01-27T06:41:07.896Z,12.40
2023-01-27T06:43:35.786Z,10.85
2023-01-27T06:46:05.681Z,11.95
2023-01-27T06:48:33.446Z,10.77
2023-01-27T06:51:01.021Z,9.50
2023-01-27T06:53:28.244Z,8.68
2023-01-27T06:55:57.165Z,9.23
2023-01-27T06:58:24.823Z,9.32
2023-01-27T07:00:52.723Z,10.70
2023-01-27T07:03:20.269Z,13.27
2023-01-27T07:05:47.576Z,10.88
2023-01-27T07:08:14.946Z,10.23
2023-01-27T07:10:43.391Z,10.25
2023-01-27T07:13:12.842Z,10.70
2023-01-27T07:15:40.823Z,10.80
2023-01-27T07:18:09.552Z,11.10
2023-01-27T07:20:36.891Z,9.82
2023-01-27T07:23:05.718Z,11.35
2023-01-27T07:25:36.393Z,10.57
2023-01-27T07:28:04.210Z,10.48
2023-01-27T07:30:31.879Z,9.30
2023-01-27T07:33:10.287Z,9.48
2023-01-27T07:35:38.543Z,9.70
2023-01-27T07:38:06.873Z,8.75
2023-01-27T07:40:34.780Z,8.73
2023-01-27T07:43:03.256Z,9.32
2023-01-27T07:45:30.921Z,8.50
2023-01-27T07:48:08.076Z,9.27
2023-01-27T07:50:36.221Z,8.73
2023-01-27T07:53:05.044Z,8.52
2023-01-27T07:55:35.819Z,10.45
2023-01-27T07:58:03.100Z,9.52
2023-01-27T08:00:30.425Z,9.48
2023-01-27T08:02:58.718Z,9.27
2023-01-27T08:05:27.125Z,9.32
2023-01-27T08:07:57.119Z,8.90
2023-01-27T08:10:25.805Z,9.00
2023-01-27T08:12:53.231Z,10.20
2023-01-27T08:15:20.718Z,10.05
2023-01-27T08:17:58.469Z,9.88
2023-01-27T08:20:27.501Z,10.43
2023-01-27T08:22:55.067Z,9.80
2023-01-27T08:25:23.089Z,10.95
2023-01-27T08:27:52.089Z,10.48
2023-01-27T08:30:20.236Z,11.02
2023-01-27T08:32:47.954Z,10.98
2023-01-27T08:35:15.587Z,10.85
2023-01-27T08:37:42.931Z,10.75
2023-01-27T08:40:11.202Z,11.02
2023-01-27T08:42:38.650Z,12.45
2023-01-27T08:45:06.295Z,13.30
2023-01-27T08:47:33.549Z,13.32
2023-01-27T08:50:00.821Z,13.68
2023-01-27T08:52:30.749Z,13.50
2023-01-27T08:54:58.554Z,13.80
2023-01-27T08:57:26.038Z,11.85
2023-01-27T08:59:53.286Z,12.98
2023-01-27T09:02:22.561Z,13.45
2023-01-27T09:04:51.533Z,10.40
2023-01-27T09:07:19.256Z,10.75
2023-01-27T09:09:51.276Z,10.18
2023-01-27T09:12:23.221Z,9.88
2023-01-27T09:14:50.512Z,11.20
2023-01-27T09:17:19.660Z,11.95
2023-01-27T09:19:48.072Z,11.00
2023-01-27T09:22:15.348Z,10.83
2023-01-27T09:24:42.716Z,10.55
2023-01-27T09:27:10.434Z,9.95
2023-01-27T09:29:37.801Z,9.45
2023-01-27T09:32:05.667Z,10.07
2023-01-27T09:34:32.917Z,10.43
2023-01-27T09:37:09.097Z,10.02
2023-01-27T09:39:51.444Z,10.85
2023-01-27T09:42:40.267Z,10.35
2023-01-27T09:45:36.385Z,10.63
2023-01-27T09:48:07.500Z,10.85
2023-01-27T09:50:45.087Z,10.90
2023-01-27T09:53:29.106Z,11.63
2023-01-27T09:56:12.456Z,10.52
2023-01-27T09:58:54.768Z,11.60
2023-01-27T10:01:43.309Z,9.50
2023-01-27T10:04:39.626Z,10.35
2023-01-27T10:07:34.822Z,9.48
2023-01-27T10:10:31.991Z,8.70
2023-01-27T10:13:13.230Z,8.85
2023-01-27T10:16:03.373Z,10.18
2023-01-27T10:18:50.972Z,9.02
2023-01-27T10:21:46.292Z,9.52
2023-01-27T10:24:48.355Z,7.68
2023-01-27T10:27:23.575Z,8.65
2023-01-27T10:29:58.951Z,8.57
2023-01-27T10:32:45.082Z,9.75
2023-01-27T10:35:20.868Z,9.50
2023-01-27T10:37:53.119Z,9.02
2023-01-27T10:40:36.273Z,9.52
2023-01-27T10:43:08.693Z,8.70
2023-01-27T10:45:55.622Z,9.35
2023-01-27T10:48:28.212Z,8.60
2023-01-27T10:51:02.498Z,9.07
2023-01-27T10:53:44.307Z,7.95
2023-01-27T10:56:24.758Z,6.70
2023-01-27T10:59:22.803Z,7.80
2023-01-27T11:01:53.943Z,7.82
2023-01-27T11:05:03.942Z,8.18
2023-01-27T11:07:32.887Z,8.13
2023-01-27T11:10:09.075Z,8.65
2023-01-27T11:12:39.389Z,7.50
2023-01-27T11:15:24.404Z,7.25
2023-01-27T11:18:02.104Z,7.10
2023-01-27T11:20:35.541Z,7.45
2023-01-27T11:23:28.208Z,6.80
2023-01-27T11:26:28.152Z,6.45
2023-01-27T11:29:25.607Z,6.15
2023-01-27T11:32:17.476Z,7.20
2023-01-27T11:34:57.391Z,7.50
2023-01-27T11:37:31.915Z,7.05
2023-01-27T11:39:59.195Z,6.57
2023-01-27T11:42:35.019Z,7.07
2023-01-27T11:45:02.699Z,5.97
2023-01-27T11:47:40.946Z,5.57
2023-01-27T11:50:13.611Z,5.72
2023-01-27T11:52:41.213Z,5.47
2023-01-27T11:55:14.716Z,6.30
2023-01-27T11:57:54.205Z,6.15
2023-01-27T12:00:29.319Z,6.05
2023-01-27T12:03:06.652Z,5.55
2023-01-27T12:05:49.259Z,4.82
2023-01-27T12:08:46.452Z,5.38
2023-01-27T12:11:28.928Z,5.82
2023-01-27T12:14:00.327Z,5.63
2023-01-27T12:16:51.293Z,5.50
2023-01-27T12:19:27.810Z,4.82
2023-01-27T12:21:58.034Z,5.55
2023-01-27T12:24:34.788Z,4.68
2023-01-27T12:27:03.068Z,5.40
2023-01-27T12:29:57.037Z,5.18
2023-01-27T12:32:42.588Z,4.70
2023-01-27T12:35:31.297Z,5.03
2023-01-27T12:38:04.823Z,5.43
2023-01-27T12:40:33.235Z,5.55
2023-01-27T12:43:13.604Z,5.68
2023-01-27T12:45:41.654Z,6.03
2023-01-27T12:48:15.921Z,6.57
2023-01-27T12:50:54.943Z,6.40
2023-01-27T12:53:23.358Z,6.80
2023-01-27T12:56:00.448Z,6.90
2023-01-27T12:58:31.939Z,7.22
2023-01-27T13:01:01.659Z,7.03
2023-01-27T13:03:29.906Z,7.57
2023-01-27T13:05:59.257Z,7.57
2023-01-27T13:10:57.820Z,8.20
2023-01-27T13:13:27.385Z,8.18
2023-01-27T13:16:07.948Z,9.48
2023-01-27T13:18:38.979Z,8.38
2023-01-27T13:21:19.678Z,7.65
2023-01-27T13:23:49.102Z,6.97
2023-01-27T13:26:23.989Z,6.88
2023-01-27T13:28:54.318Z,6.78
2023-01-27T13:31:44.578Z,7.22
2023-01-27T13:34:27.837Z,7.53
2023-01-27T13:37:07.185Z,9.02
2023-01-27T13:42:40.259Z,9.90
2023-01-27T13:45:36.901Z,9.55
2023-01-27T13:48:18.895Z,8.90
2023-01-27T13:51:08.758Z,8.88
2023-01-27T13:53:36.534Z,8.45
2023-01-27T13:56:15.944Z,9.93
2023-01-27T14:01:48.061Z,8.55
2023-01-27T14:04:36.663Z,9.02
2023-01-27T14:07:13.126Z,8.50
2023-01-27T14:10:05.192Z,8.52
2023-01-27T14:12:41.802Z,10.27
2023-01-27T14:15:28.103Z,7.68
2023-01-27T14:18:08.374Z,6.95
2023-01-27T14:21:05.577Z,5.70
2023-01-27T14:23:51.247Z,4.88
2023-01-27T14:26:30.517Z,6.43
2023-01-27T14:29:31.242Z,4.97
2023-01-27T14:32:20.347Z,4.28
2023-01-27T14:35:00.193Z,3.80
2023-01-27T14:38:26.098Z,3.85
2023-01-27T14:41:24.860Z,4.25
2023-01-27T14:44:01.286Z,4.00
2023-01-27T14:46:59.279Z,3.50
2023-01-27T14:49:52.426Z,4.13
2023-01-27T14:52:44.345Z,3.25
2023-01-27T14:55:32.145Z,3.03
2023-01-27T14:58:22.622Z,3.35
2023-01-27T15:01:16.247Z,3.03
2023-01-27T15:03:43.498Z,3.15
2023-01-27T15:06:25.780Z,3.80
2023-01-27T15:09:02.075Z,2.95
2023-01-27T15:11:36.789Z,3.47
2023-01-27T15:14:06.981Z,2.95
2023-01-27T15:16:39.713Z,3.85
2023-01-27T15:19:45.581Z,4.35
2023-01-27T15:22:44.420Z,3.85
2023-01-27T15:25:33.519Z,4.38
2023-01-27T15:28:02.150Z,4.82
2023-01-27T15:30:33.351Z,4.05
2023-01-27T15:33:00.789Z,5.10
2023-01-27T15:35:36.755Z,4.95
2023-01-27T15:38:09.760Z,4.95
2023-01-27T15:40:59.070Z,5.25
2023-01-27T15:43:29.669Z,5.45
2023-01-27T15:45:58.356Z,5.53
2023-01-27T15:48:33.833Z,5.90
2023-01-27T15:51:06.817Z,5.63
2023-01-27T15:53:41.247Z,6.20
2023-01-27T15:56:09.800Z,6.88
2023-01-27T15:58:50.806Z,6.07
2023-01-27T16:01:28.030Z,6.47
2023-01-27T16:04:11.468Z,6.63
2023-01-27T16:06:47.274Z,6.38
2023-01-27T16:09:26.171Z,6.35
2023-01-27T16:12:27.057Z,7.00
2023-01-27T16:15:13.433Z,6.05
2023-01-27T16:18:07.996Z,6.22
2023-01-27T16:20:44.227Z,6.97
2023-01-27T16:23:19.279Z,6.88
2023-01-27T16:26:06.867Z,6.97
2023-01-27T16:28:35.289Z,11.32
2023-01-27T16:31:18.909Z,10.18
2023-01-27T16:33:55.412Z,12.32
2023-01-27T16:36:28.035Z,8.73
2023-01-27T16:38:57.916Z,9.18
2023-01-27T16:41:37.907Z,7.47
2023-01-27T16:44:18.153Z,6.10
2023-01-27T16:46:51.351Z,6.22
2023-01-27T16:49:28.759Z,7.05
2023-01-27T16:51:57.289Z,7.78
2023-01-27T16:54:32.019Z,5.80
2023-01-27T16:56:59.427Z,5.88
2023-01-27T16:59:28.597Z,6.63
2023-01-27T17:02:01.882Z,7.22
2023-01-27T17:04:32.091Z,7.32
2023-01-27T17:07:13.416Z,8.13
2023-01-27T17:09:42.397Z,6.55
2023-01-27T17:12:32.029Z,8.05
2023-01-27T17:15:00.458Z,15.65
2023-01-27T17:17:29.647Z,7.38
2023-01-27T17:20:03.899Z,22.15
2023-01-27T17:22:40.252Z,5.40
2023-01-27T17:25:32.328Z,5.05
2023-01-27T17:28:01.192Z,4.57
2023-01-27T17:30:41.914Z,4.72
2023-01-27T17:33:19.416Z,4.70
2023-01-27T17:35:56.021Z,4.55
2023-01-27T17:38:27.937Z,4.47
2023-01-27T17:40:55.921Z,3.80
2023-01-27T17:43:30.930Z,5.25
2023-01-27T17:46:16.667Z,5.75
2023-01-27T17:48:50.848Z,4.18
2023-01-27T17:51:23.617Z,3.70
2023-01-27T17:53:52.210Z,4.60
2023-01-27T17:56:27.289Z,2.20
2023-01-27T17:59:03.368Z,3.45
2023-01-27T18:01:31.277Z,2.78
2023-01-27T18:03:58.904Z,2.60
2023-01-27T18:06:29.915Z,3.33
2023-01-27T18:08:59.738Z,3.00
2023-01-27T18:11:32.108Z,2.53
2023-01-27T18:14:08.847Z,2.25
2023-01-27T18:16:36.437Z,2.72
2023-01-27T18:19:23.728Z,2.72
2023-01-27T18:22:12.477Z,2.58
2023-01-27T18:24:40.755Z,3.58
2023-01-27T18:27:22.596Z,8.68
2023-01-27T18:29:54.194Z,3.30
2023-01-27T18:32:24.160Z,3.70
2023-01-27T18:34:59.304Z,3.88
2023-01-27T18:37:36.159Z,4.18
2023-01-27T18:40:26.552Z,3.55
2023-01-27T18:42:54.608Z,6.88
2023-01-27T18:45:22.052Z,4.20
2023-01-27T18:47:52.091Z,2.75
2023-01-27T18:50:22.301Z,2.55
2023-01-27T18:52:50.793Z,2.67
2023-01-27T18:55:26.805Z,2.77
2023-01-27T18:57:58.806Z,2.75
2023-01-27T19:00:35.984Z,2.80
2023-01-27T19:03:03.923Z,2.58
2023-01-27T19:05:35.479Z,2.80
2023-01-27T19:08:03.766Z,3.03
2023-01-27T19:10:33.857Z,4.47
2023-01-27T19:13:02.700Z,4.13
2023-01-27T19:15:39.738Z,2.50
2023-01-27T19:18:29.563Z,2.83
2023-01-27T19:20:56.875Z,2.75
2023-01-27T19:23:24.181Z,3.25
2023-01-27T19:25:54.087Z,2.50
2023-01-27T19:28:25.042Z,2.83
2023-01-27T19:30:52.311Z,3.05
2023-01-27T19:33:22.881Z,2.67
2023-01-27T19:35:57.030Z,2.72
2023-01-27T19:38:28.454Z,2.88
2023-01-27T19:40:56.022Z,2.50
2023-01-27T19:43:23.536Z,2.72
2023-01-27T19:45:50.971Z,3.00
2023-01-27T19:48:20.476Z,2.95
2023-01-27T19:50:48.230Z,3.33
2023-01-27T19:53:18.670Z,2.83
2023-01-27T19:55:47.348Z,2.60
2023-01-27T19:58:22.057Z,3.08
2023-01-27T20:00:49.325Z,3.45
2023-01-27T20:03:16.743Z,2.83
2023-01-27T20:05:44.104Z,3.10
2023-01-27T20:08:19.570Z,2.53
2023-01-27T20:10:47.045Z,2.45
2023-01-27T20:13:17.125Z,2.58
2023-01-27T20:15:44.655Z,2.25
2023-01-27T20:18:15.163Z,2.53
2023-01-27T20:20:44.301Z,2.58
2023-01-27T20:23:15.245Z,2.60
2023-01-27T20:25:42.629Z,3.13
2023-01-27T20:28:10.757Z,2.42
2023-01-27T20:30:38.837Z,1.98
2023-01-27T20:33:06.191Z,2.63
2023-01-27T20:35:33.706Z,2.80
2023-01-27T20:38:03.338Z,2.80
2023-01-27T20:40:31.147Z,2.30
2023-01-27T20:43:00.785Z,2.53
2023-01-27T20:45:28.224Z,2.40
2023-01-27T20:47:56.173Z,2.22
2023-01-27T20:50:26.038Z,2.40
2023-01-27T20:52:54.028Z,2.35
2023-01-27T20:55:21.376Z,2.22
2023-01-27T20:57:49.002Z,2.50
2023-01-27T21:00:20.872Z,2.17
2023-01-27T21:02:49.663Z,2.95
2023-01-27T21:05:17.223Z,2.80
2023-01-27T21:07:44.798Z,2.63
2023-01-27T21:10:12.263Z,2.53
2023-01-27T21:12:39.855Z,2.25
2023-01-27T21:15:09.812Z,2.50
2023-01-27T21:17:37.440Z,2.15
2023-01-27T21:20:05.166Z,2.70
2023-01-27T21:22:32.921Z,2.80
2023-01-27T21:25:00.185Z,2.67
2023-01-27T21:27:27.480Z,2.40
2023-01-27T21:29:54.792Z,3.03
2023-01-27T21:32:22.022Z,2.58
2023-01-27T21:34:49.275Z,2.15
2023-01-27T21:37:16.640Z,2.42
2023-01-27T21:39:43.917Z,1.88
2023-01-27T21:42:17.279Z,2.13
2023-01-27T21:45:03.107Z,2.55
2023-01-27T21:47:30.386Z,2.00
2023-01-27T21:50:00.590Z,2.10
2023-01-27T21:52:43.277Z,2.38
2023-01-27T21:55:23.400Z,2.10
2023-01-27T21:57:51.693Z,2.47
2023-01-27T22:00:21.520Z,2.08
2023-01-27T22:03:00.046Z,2.15
2023-01-27T22:05:28.227Z,2.55
2023-01-27T22:07:55.526Z,2.13
2023-01-27T22:10:25.557Z,2.40
2023-01-27T22:12:58.249Z,3.10
2023-01-27T22:15:28.659Z,2.03
2023-01-27T22:17:59.370Z,2.72
2023-01-27T22:20:27.544Z,2.67
2023-01-27T22:22:55.269Z,2.70
2023-01-27T22:25:22.582Z,1.98
2023-01-27T22:27:55.721Z,2.28
2023-01-27T22:30:24.253Z,2.45
2023-01-27T22:32:51.595Z,2.33
2023-01-27T22:35:19.506Z,2.58
2023-01-27T22:37:49.187Z,3.00
2023-01-27T22:40:16.757Z,2.60
2023-01-27T22:42:43.984Z,2.88
2023-01-27T22:45:11.731Z,2.83
2023-01-27T22:47:39.010Z,2.58
2023-01-27T22:50:06.600Z,3.13
2023-01-27T22:52:36.674Z,2.53
2023-01-27T22:55:08.972Z,2.60
2023-01-27T22:57:36.403Z,2.72
2023-01-27T23:00:05.777Z,2.60
2023-01-27T23:05:00.345Z,2.47
2023-01-27T23:07:27.823Z,3.00
2023-01-27T23:09:55.067Z,2.05
2023-01-27T23:12:22.383Z,2.50
2023-01-27T23:14:49.571Z,2.58
2023-01-27T23:17:16.824Z,2.80
2023-01-27T23:19:44.069Z,2.30
2023-01-27T23:22:11.841Z,2.50
2023-01-27T23:24:39.323Z,2.92
2023-01-27T23:27:06.543Z,3.00
2023-01-27T23:29:33.809Z,2.70
2023-01-27T23:32:01.246Z,2.35
2023-01-27T23:34:28.641Z,3.28
2023-01-27T23:36:55.864Z,2.47
2023-01-27T23:39:23.232Z,2.63
2023-01-27T23:41:50.432Z,2.90
2023-01-27T23:44:17.753Z,2.83
2023-01-27T23:46:44.959Z,2.53
2023-01-27T23:49:12.742Z,2.75
2023-01-27T23:51:40.016Z,3.10
2023-01-27T23:54:07.293Z,3.08
2023-01-27T23:56:34.597Z,2.97
2023-01-27T23:59:02.056Z,3.17
